Time;durP1;ratioP1;P1;durP2;ratioP2;P2;SDS_P1;SDS_P2;PMS_P1;PMS_P2;Temp;Humidity;BMP_temperature;BMP_pressure;BME280_temperature;BME280_humidity;BME280_pressure;Samples;Min_cycle;Max_cycle;Signal;HPM_P1;HPM_P2
2022/04/15 00:01:25;;;;;;;6.80;2.80;;;;;;;;;;4968488;28;20027;-73
2022/04/15 00:03:51;;;;;;;7.10;3.20;;;;;;;;;;4971139;28;20026;-73
2022/04/15 00:06:18;;;;;;;8.48;2.90;;;;;;;;;;4970412;28;20030;-73
2022/04/15 00:08:44;;;;;;;5.53;2.85;;;;;;;;;;4968567;28;20019;-72
2022/04/15 00:11:11;;;;;;;10.85;3.08;;;;;;;;;;4968834;28;20037;-73
2022/04/15 00:13:38;;;;;;;5.05;2.90;;;;;;;;;;4968423;28;20106;-73
2022/04/15 00:16:05;;;;;;;9.15;2.88;;;;;;;;;;4969053;28;20027;-73
2022/04/15 00:18:32;;;;;;;10.20;3.20;;;;;;;;;;4972320;28;20031;-73
2022/04/15 00:20:58;;;;;;;9.43;3.33;;;;;;;;;;4968763;28;20038;-72
2022/04/15 00:23:25;;;;;;;8.98;3.00;;;;;;;;;;4968331;28;20030;-73
2022/04/15 00:25:52;;;;;;;7.70;3.17;;;;;;;;;;4968210;28;20025;-72
2022/04/15 00:28:18;;;;;;;6.10;2.70;;;;;;;;;;4970933;28;20436;-72
2022/04/15 00:30:45;;;;;;;10.55;2.60;;;;;;;;;;4975447;28;20033;-72
2022/04/15 00:33:11;;;;;;;6.95;2.80;;;;;;;;;;4973687;28;20061;-73
2022/04/15 00:35:37;;;;;;;9.45;3.30;;;;;;;;;;4971974;28;20026;-72
2022/04/15 00:38:04;;;;;;;11.25;2.75;;;;;;;;;;4972019;28;20054;-73
2022/04/15 00:40:30;;;;;;;8.13;2.90;;;;;;;;;;4958858;28;20038;-73
2022/04/15 00:42:57;;;;;;;7.55;2.70;;;;;;;;;;4973963;28;20039;-73
2022/04/15 00:45:23;;;;;;;6.82;2.75;;;;;;;;;;4975037;28;20023;-72
2022/04/15 00:47:53;;;;;;;10.38;3.30;;;;;;;;;;4972239;28;20026;-73
2022/04/15 00:50:19;;;;;;;11.38;3.25;;;;;;;;;;4971575;28;20403;-72
2022/04/15 00:52:47;;;;;;;5.75;2.63;;;;;;;;;;4971511;28;20026;-72
2022/04/15 00:55:14;;;;;;;5.97;2.90;;;;;;;;;;4971807;28;20034;-73
2022/04/15 00:57:41;;;;;;;6.75;3.13;;;;;;;;;;4975484;28;20039;-73
2022/04/15 01:00:08;;;;;;;6.50;2.83;;;;;;;;;;4972928;28;20026;-72
2022/04/15 01:02:35;;;;;;;8.55;3.30;;;;;;;;;;4972014;28;20484;-73
2022/04/15 01:05:05;;;;;;;5.75;2.90;;;;;;;;;;4970973;28;20533;-72
2022/04/15 01:07:35;;;;;;;7.90;2.58;;;;;;;;;;4971640;28;20031;-73
2022/04/15 01:10:03;;;;;;;6.00;2.67;;;;;;;;;;4972277;28;20025;-72
2022/04/15 01:12:30;;;;;;;4.88;2.78;;;;;;;;;;4975245;28;20042;-73
2022/04/15 01:15:04;;;;;;;7.05;3.17;;;;;;;;;;4971857;28;20463;-72
2022/04/15 01:17:30;;;;;;;8.18;3.22;;;;;;;;;;4953653;28;20035;-72
2022/04/15 01:19:57;;;;;;;6.53;3.00;;;;;;;;;;4971392;28;20491;-72
2022/04/15 01:22:24;;;;;;;7.28;3.38;;;;;;;;;;4971426;28;20016;-73
2022/04/15 01:24:51;;;;;;;7.22;3.03;;;;;;;;;;4973599;28;20035;-73
2022/04/15 01:27:33;;;;;;;8.82;2.67;;;;;;;;;;4958239;28;20026;-72
2022/04/15 01:29:59;;;;;;;11.43;3.60;;;;;;;;;;4975398;28;20042;-72
2022/04/15 01:32:26;;;;;;;9.55;3.28;;;;;;;;;;4970685;28;20053;-72
2022/04/15 01:34:52;;;;;;;6.72;2.95;;;;;;;;;;4970883;28;20035;-72
2022/04/15 01:37:20;;;;;;;9.77;3.17;;;;;;;;;;4970919;28;20023;-73
2022/04/15 01:39:47;;;;;;;6.78;2.95;;;;;;;;;;4972854;28;20487;-72
2022/04/15 01:42:14;;;;;;;8.55;2.95;;;;;;;;;;4972704;28;20030;-72
2022/04/15 01:44:41;;;;;;;8.98;2.95;;;;;;;;;;4971589;28;20038;-72
2022/04/15 01:47:08;;;;;;;10.15;3.20;;;;;;;;;;4970632;28;20034;-72
2022/04/15 01:49:34;;;;;;;7.80;3.20;;;;;;;;;;4970801;28;20395;-73
2022/04/15 01:52:01;;;;;;;9.77;2.65;;;;;;;;;;4971772;28;20027;-72
2022/04/15 01:54:28;;;;;;;7.55;3.13;;;;;;;;;;4974202;28;20034;-73
2022/04/15 01:56:54;;;;;;;6.53;2.67;;;;;;;;;;4971107;28;20438;-73
2022/04/15 01:59:21;;;;;;;4.95;2.60;;;;;;;;;;4970513;28;20026;-73
2022/04/15 02:01:48;;;;;;;10.45;3.05;;;;;;;;;;4970256;28;20023;-72
2022/04/15 02:04:14;;;;;;;8.05;3.10;;;;;;;;;;4970522;28;20023;-72
2022/04/15 02:06:40;;;;;;;8.68;2.83;;;;;;;;;;4974384;28;20031;-72
2022/04/15 02:09:07;;;;;;;7.20;2.92;;;;;;;;;;4971732;28;20027;-72
2022/04/15 02:11:34;;;;;;;8.80;3.15;;;;;;;;;;4974649;28;20031;-72
2022/04/15 02:14:00;;;;;;;6.38;3.05;;;;;;;;;;4970170;28;20108;-72
2022/04/15 02:16:27;;;;;;;6.07;3.28;;;;;;;;;;4969885;28;20024;-73
2022/04/15 02:18:53;;;;;;;9.23;2.83;;;;;;;;;;4972577;28;20088;-72
2022/04/15 02:21:19;;;;;;;9.95;2.88;;;;;;;;;;4972658;28;20026;-72
2022/04/15 02:23:46;;;;;;;10.52;3.15;;;;;;;;;;4970654;28;20151;-72
2022/04/15 02:26:12;;;;;;;7.60;2.90;;;;;;;;;;4970024;28;20037;-72
2022/04/15 02:28:38;;;;;;;7.43;3.17;;;;;;;;;;4969981;28;20045;-72
2022/04/15 02:31:05;;;;;;;9.63;2.90;;;;;;;;;;4970275;28;20027;-72
2022/04/15 02:33:31;;;;;;;4.85;2.58;;;;;;;;;;4973771;28;20041;-72
2022/04/15 02:35:57;;;;;;;10.50;2.83;;;;;;;;;;4970323;28;20383;-72
2022/04/15 02:38:24;;;;;;;9.05;3.15;;;;;;;;;;4969834;28;20027;-72
2022/04/15 02:40:50;;;;;;;7.15;2.75;;;;;;;;;;4970006;28;20546;-72
2022/04/15 02:43:17;;;;;;;9.90;3.42;;;;;;;;;;4969746;28;20412;-72
2022/04/15 02:45:43;;;;;;;9.52;3.00;;;;;;;;;;4973097;28;20015;-72
2022/04/15 02:48:10;;;;;;;8.90;3.17;;;;;;;;;;4970917;28;20033;-72
2022/04/15 02:50:37;;;;;;;5.30;2.67;;;;;;;;;;4969869;28;20031;-72
2022/04/15 02:53:05;;;;;;;5.28;2.80;;;;;;;;;;4969413;28;20042;-73
2022/04/15 02:55:31;;;;;;;8.57;2.95;;;;;;;;;;4969721;28;20015;-72
2022/04/15 02:57:57;;;;;;;11.63;3.33;;;;;;;;;;4970912;28;20057;-72
2022/04/15 03:00:24;;;;;;;9.90;3.35;;;;;;;;;;4972324;28;20122;-73
2022/04/15 03:02:50;;;;;;;9.93;3.08;;;;;;;;;;4970234;28;20030;-72
2022/04/15 03:05:16;;;;;;;7.75;2.95;;;;;;;;;;4969142;28;20027;-72
2022/04/15 03:07:43;;;;;;;9.68;3.03;;;;;;;;;;4969195;28;20027;-72
2022/04/15 03:10:09;;;;;;;6.70;3.03;;;;;;;;;;4969279;28;20374;-72
2022/04/15 03:12:39;;;;;;;9.93;2.90;;;;;;;;;;4973489;28;20029;-72
2022/04/15 03:15:06;;;;;;;9.10;3.30;;;;;;;;;;4969921;28;20468;-72
2022/04/15 03:17:36;;;;;;;9.80;3.17;;;;;;;;;;4973203;28;20035;-72
2022/04/15 03:20:02;;;;;;;10.75;3.35;;;;;;;;;;4969065;28;20027;-72
2022/04/15 03:22:35;;;;;;;10.50;2.95;;;;;;;;;;4969113;28;20035;-72
2022/04/15 03:25:01;;;;;;;11.25;3.17;;;;;;;;;;4969996;28;20074;-72
2022/04/15 03:27:28;;;;;;;7.28;3.22;;;;;;;;;;4972608;28;20037;-72
2022/04/15 03:29:54;;;;;;;10.32;3.10;;;;;;;;;;4968975;28;20035;-72
2022/04/15 03:32:20;;;;;;;11.80;3.20;;;;;;;;;;4956096;28;20480;-72
2022/04/15 03:34:47;;;;;;;7.05;3.13;;;;;;;;;;4968788;28;20031;-72
2022/04/15 03:37:13;;;;;;;8.90;3.38;;;;;;;;;;4968741;28;20028;-72
2022/04/15 03:39:39;;;;;;;8.45;3.00;;;;;;;;;;4972658;28;20498;-72
2022/04/15 03:42:07;;;;;;;8.98;2.90;;;;;;;;;;4969837;28;20518;-73
2022/04/15 03:44:33;;;;;;;11.57;3.58;;;;;;;;;;4968676;28;20030;-72
2022/04/15 03:47:00;;;;;;;6.15;2.90;;;;;;;;;;4968631;28;20022;-72
2022/04/15 03:49:26;;;;;;;6.68;2.78;;;;;;;;;;4968611;28;20031;-72
2022/04/15 03:51:53;;;;;;;8.00;3.05;;;;;;;;;;4970649;28;20522;-72
2022/04/15 03:54:19;;;;;;;9.13;3.00;;;;;;;;;;4971128;28;20480;-72
2022/04/15 03:56:46;;;;;;;10.25;3.17;;;;;;;;;;4968956;28;20026;-72
2022/04/15 03:59:13;;;;;;;8.25;2.60;;;;;;;;;;4968534;28;20027;-73
2022/04/15 04:01:39;;;;;;;8.18;2.85;;;;;;;;;;4968169;28;20015;-72
2022/04/15 04:04:06;;;;;;;8.90;2.70;;;;;;;;;;4968803;28;20015;-72
2022/04/15 04:06:32;;;;;;;6.50;3.20;;;;;;;;;;4972712;28;20506;-72
2022/04/15 04:08:58;;;;;;;7.57;2.67;;;;;;;;;;4968859;28;20030;-72
2022/04/15 04:11:25;;;;;;;10.70;2.90;;;;;;;;;;4967884;28;20027;-72
2022/04/15 04:13:51;;;;;;;9.75;2.80;;;;;;;;;;4968202;28;20038;-72
2022/04/15 04:16:18;;;;;;;7.75;3.08;;;;;;;;;;4968373;28;20021;-72
2022/04/15 04:18:45;;;;;;;12.30;3.00;;;;;;;;;;4971467;28;20038;-72
2022/04/15 04:21:12;;;;;;;5.93;2.90;;;;;;;;;;4969931;28;20027;-72
2022/04/15 04:23:39;;;;;;;7.10;3.33;;;;;;;;;;4972336;28;20480;-72
2022/04/15 04:26:06;;;;;;;6.45;3.15;;;;;;;;;;4967818;28;20096;-72
2022/04/15 04:28:32;;;;;;;8.50;2.97;;;;;;;;;;4954993;28;20397;-72
2022/04/15 04:30:59;;;;;;;12.07;3.15;;;;;;;;;;4969503;28;20489;-72
2022/04/15 04:33:25;;;;;;;11.13;3.20;;;;;;;;;;4971172;28;20043;-72
2022/04/15 04:35:51;;;;;;;5.82;2.72;;;;;;;;;;4968900;28;20027;-73
2022/04/15 04:38:18;;;;;;;9.38;2.72;;;;;;;;;;4968011;28;20027;-72
2022/04/15 04:40:46;;;;;;;8.35;3.33;;;;;;;;;;4967783;28;20015;-72
2022/04/15 04:43:12;;;;;;;14.05;3.63;;;;;;;;;;4968278;28;20045;-72
2022/04/15 04:45:39;;;;;;;7.45;3.35;;;;;;;;;;4971953;28;20511;-72
2022/04/15 04:48:05;;;;;;;10.82;3.30;;;;;;;;;;4968967;28;20033;-72
2022/04/15 04:50:32;;;;;;;10.95;3.72;;;;;;;;;;4972250;28;20041;-72
2022/04/15 04:52:59;;;;;;;7.00;3.47;;;;;;;;;;4967912;28;20065;-72
2022/04/15 04:55:25;;;;;;;6.07;3.40;;;;;;;;;;4967621;28;20015;-72
2022/04/15 04:57:52;;;;;;;10.13;3.17;;;;;;;;;;4970165;28;20027;-72
2022/04/15 05:00:18;;;;;;;7.03;3.70;;;;;;;;;;4970402;28;20499;-72
2022/04/15 05:02:45;;;;;;;9.80;3.10;;;;;;;;;;4968351;28;20033;-72
2022/04/15 05:05:12;;;;;;;10.18;3.13;;;;;;;;;;4967993;28;20019;-72
2022/04/15 05:07:38;;;;;;;9.80;2.90;;;;;;;;;;4968147;28;20033;-72
2022/04/15 05:10:06;;;;;;;11.10;3.28;;;;;;;;;;4968159;28;20019;-72
2022/04/15 05:12:32;;;;;;;8.93;3.40;;;;;;;;;;4971910;28;20533;-72
2022/04/15 05:14:59;;;;;;;9.38;2.78;;;;;;;;;;4972327;28;20042;-72
2022/04/15 05:17:25;;;;;;;11.27;3.60;;;;;;;;;;4971225;28;20019;-72
2022/04/15 05:19:51;;;;;;;11.48;3.35;;;;;;;;;;4971375;28;20035;-72
2022/04/15 05:22:18;;;;;;;11.40;3.20;;;;;;;;;;4971507;28;20027;-72
2022/04/15 05:24:45;;;;;;;14.10;3.40;;;;;;;;;;4974315;28;20023;-72
2022/04/15 05:27:11;;;;;;;8.45;2.90;;;;;;;;;;4972673;28;20387;-72
2022/04/15 05:29:37;;;;;;;9.75;3.15;;;;;;;;;;4974783;28;20050;-72
2022/04/15 05:32:04;;;;;;;8.90;3.03;;;;;;;;;;4971023;28;20506;-72
2022/04/15 05:34:30;;;;;;;13.80;3.33;;;;;;;;;;4970977;28;20037;-72
2022/04/15 05:36:56;;;;;;;10.68;3.85;;;;;;;;;;4972581;28;20035;-72
2022/04/15 05:39:23;;;;;;;8.45;2.70;;;;;;;;;;4973504;28;20033;-72
2022/04/15 05:41:49;;;;;;;11.48;4.28;;;;;;;;;;4971951;28;20034;-72
2022/04/15 05:44:16;;;;;;;12.45;3.10;;;;;;;;;;4970826;28;20026;-72
2022/04/15 05:46:43;;;;;;;12.40;3.97;;;;;;;;;;4970588;28;20033;-72
2022/04/15 05:49:16;;;;;;;14.10;3.85;;;;;;;;;;4971013;28;20027;-72
2022/04/15 05:51:43;;;;;;;10.10;3.42;;;;;;;;;;4974152;28;20031;-72
2022/04/15 05:54:10;;;;;;;9.93;3.88;;;;;;;;;;4971575;28;20045;-72
2022/04/15 05:56:37;;;;;;;11.55;4.00;;;;;;;;;;4970873;28;20029;-72
2022/04/15 05:59:04;;;;;;;9.82;4.32;;;;;;;;;;4970837;28;20022;-72
2022/04/15 06:01:30;;;;;;;9.18;4.10;;;;;;;;;;4970626;28;20381;-72
2022/04/15 06:03:56;;;;;;;9.90;4.82;;;;;;;;;;4972410;28;20095;-72
2022/04/15 06:06:23;;;;;;;11.35;3.70;;;;;;;;;;4973722;28;20033;-72
2022/04/15 06:08:49;;;;;;;8.27;3.53;;;;;;;;;;4970601;28;20049;-72
2022/04/15 06:11:15;;;;;;;12.13;3.30;;;;;;;;;;4970142;28;20026;-72
2022/04/15 06:13:47;;;;;;;13.88;3.40;;;;;;;;;;4954077;28;20535;-72
2022/04/15 06:16:17;;;;;;;6.93;3.08;;;;;;;;;;4969499;28;20023;-72
2022/04/15 06:18:43;;;;;;;7.60;3.10;;;;;;;;;;4970087;28;20033;-72
2022/04/15 06:21:10;;;;;;;12.63;3.30;;;;;;;;;;4973006;28;20029;-72
2022/04/15 06:23:36;;;;;;;13.75;3.10;;;;;;;;;;4973717;28;20378;-72
2022/04/15 06:26:02;;;;;;;13.60;3.72;;;;;;;;;;4971394;28;20037;-72
2022/04/15 06:28:29;;;;;;;13.90;3.05;;;;;;;;;;4974077;28;20054;-72
2022/04/15 06:30:57;;;;;;;7.15;3.10;;;;;;;;;;4971215;28;20031;-73
2022/04/15 06:33:23;;;;;;;13.43;3.20;;;;;;;;;;4971034;28;20045;-73
2022/04/15 06:35:51;;;;;;;16.60;3.05;;;;;;;;;;4973297;28;20031;-72
2022/04/15 06:38:18;;;;;;;13.05;3.40;;;;;;;;;;4969164;28;20435;-72
2022/04/15 06:40:44;;;;;;;12.10;3.47;;;;;;;;;;4956588;28;20045;-72
2022/04/15 06:43:11;;;;;;;9.18;3.20;;;;;;;;;;4969010;28;20034;-72
2022/04/15 06:45:37;;;;;;;11.05;3.13;;;;;;;;;;4973862;28;20035;-72
2022/04/15 06:48:04;;;;;;;8.20;3.20;;;;;;;;;;4965680;28;20049;-72
2022/04/15 06:50:31;;;;;;;13.35;3.40;;;;;;;;;;4955563;28;20408;-72
2022/04/15 06:52:57;;;;;;;9.85;2.97;;;;;;;;;;4968568;28;20037;-73
2022/04/15 06:55:23;;;;;;;16.13;3.33;;;;;;;;;;4969120;28;20037;-73
2022/04/15 06:57:50;;;;;;;12.45;3.00;;;;;;;;;;4971544;28;20026;-73
2022/04/15 07:00:16;;;;;;;11.77;3.15;;;;;;;;;;4970823;28;20031;-73
2022/04/15 07:02:43;;;;;;;10.32;3.05;;;;;;;;;;4969109;28;20046;-73
2022/04/15 07:05:09;;;;;;;13.82;3.22;;;;;;;;;;4968560;28;20418;-73
2022/04/15 07:07:39;;;;;;;12.93;3.05;;;;;;;;;;4968934;28;20030;-73
2022/04/15 07:10:07;;;;;;;8.93;2.92;;;;;;;;;;4970367;28;20030;-73
2022/04/15 07:12:33;;;;;;;10.10;3.03;;;;;;;;;;4972166;28;20038;-73
2022/04/15 07:15:00;;;;;;;11.27;2.85;;;;;;;;;;4968306;28;20053;-73
2022/04/15 07:17:26;;;;;;;9.82;2.95;;;;;;;;;;4970859;28;20035;-74
2022/04/15 07:19:53;;;;;;;9.98;2.88;;;;;;;;;;4961681;28;20067;-74
2022/04/15 07:22:20;;;;;;;9.02;2.88;;;;;;;;;;4969718;28;20034;-74
2022/04/15 07:24:47;;;;;;;15.40;3.20;;;;;;;;;;4970777;28;20029;-74
2022/04/15 07:27:13;;;;;;;11.23;2.97;;;;;;;;;;4969036;28;20025;-74
2022/04/15 07:29:40;;;;;;;10.30;3.00;;;;;;;;;;4965914;28;20035;-73
2022/04/15 07:32:07;;;;;;;10.25;2.90;;;;;;;;;;4966142;28;20495;-73
2022/04/15 07:34:36;;;;;;;13.90;3.15;;;;;;;;;;4969928;28;20073;-74
2022/04/15 07:37:03;;;;;;;11.73;2.95;;;;;;;;;;4967032;28;20440;-74
2022/04/15 07:39:29;;;;;;;13.07;2.97;;;;;;;;;;4970896;28;20534;-73
2022/04/15 07:41:56;;;;;;;17.05;3.17;;;;;;;;;;4968274;28;20023;-74
2022/04/15 07:44:22;;;;;;;14.05;3.25;;;;;;;;;;4967057;28;20019;-74
2022/04/15 07:46:49;;;;;;;18.73;3.42;;;;;;;;;;4970014;28;20223;-74
2022/04/15 07:49:15;;;;;;;15.82;3.78;;;;;;;;;;4966118;28;20472;-74
2022/04/15 07:51:42;;;;;;;13.90;3.85;;;;;;;;;;4953921;28;20038;-74
2022/04/15 07:54:09;;;;;;;9.30;3.35;;;;;;;;;;4967908;28;20035;-74
2022/04/15 07:56:36;;;;;;;15.75;2.92;;;;;;;;;;4967314;28;20027;-74
2022/04/15 07:59:03;;;;;;;10.02;3.63;;;;;;;;;;4966763;28;20039;-75
2022/04/15 08:01:29;;;;;;;14.85;3.45;;;;;;;;;;4970662;28;20834;-75
2022/04/15 08:03:57;;;;;;;11.55;3.05;;;;;;;;;;4968686;28;20034;-74
2022/04/15 08:06:23;;;;;;;13.32;3.33;;;;;;;;;;4969154;28;20027;-74
2022/04/15 08:08:54;;;;;;;10.65;4.05;;;;;;;;;;4964485;28;20388;-75
2022/04/15 08:11:21;;;;;;;13.50;4.10;;;;;;;;;;4967185;28;20037;-75
2022/04/15 08:13:48;;;;;;;14.25;3.75;;;;;;;;;;4966033;28;20400;-75
2022/04/15 08:16:14;;;;;;;9.75;3.55;;;;;;;;;;4966747;28;20035;-75
2022/04/15 08:18:40;;;;;;;16.35;4.00;;;;;;;;;;4970392;28;20027;-76
2022/04/15 08:21:07;;;;;;;8.10;3.80;;;;;;;;;;4966392;28;20035;-75
2022/04/15 08:23:33;;;;;;;11.13;3.72;;;;;;;;;;4970756;28;20038;-76
2022/04/15 08:26:00;;;;;;;10.85;3.55;;;;;;;;;;4967032;28;20029;-76
2022/04/15 08:28:26;;;;;;;10.27;3.92;;;;;;;;;;4952643;28;20516;-76
2022/04/15 08:30:53;;;;;;;16.23;3.83;;;;;;;;;;4969098;28;20034;-75
2022/04/15 08:33:20;;;;;;;15.45;3.95;;;;;;;;;;4968677;28;20039;-75
2022/04/15 08:35:47;;;;;;;12.75;3.63;;;;;;;;;;4969864;28;20029;-76
2022/04/15 08:38:14;;;;;;;16.23;4.10;;;;;;;;;;4967697;28;20035;-76
2022/04/15 08:40:44;;;;;;;11.20;3.85;;;;;;;;;;4968771;28;20546;-76
2022/04/15 08:43:11;;;;;;;11.93;4.13;;;;;;;;;;4966398;28;20034;-75
2022/04/15 08:45:40;;;;;;;10.00;2.72;;;;;;;;;;4971057;28;20014;-76
2022/04/15 08:48:07;;;;;;;7.77;2.70;;;;;;;;;;4970657;28;20026;-76
2022/04/15 08:50:33;;;;;;;14.90;2.75;;;;;;;;;;4974694;28;20026;-76
2022/04/15 08:53:00;;;;;;;9.57;2.53;;;;;;;;;;4970546;28;20031;-74
2022/04/15 08:55:28;;;;;;;13.25;2.22;;;;;;;;;;4970642;28;20034;-74
2022/04/15 08:57:54;;;;;;;9.80;2.42;;;;;;;;;;4973529;28;20517;-74
2022/04/15 09:00:21;;;;;;;8.35;2.63;;;;;;;;;;4974546;28;20030;-73
2022/04/15 09:02:48;;;;;;;6.30;2.70;;;;;;;;;;4970532;28;20039;-76
2022/04/15 09:05:18;;;;;;;6.00;2.35;;;;;;;;;;4971696;28;20015;-75
2022/04/15 09:07:45;;;;;;;8.95;2.50;;;;;;;;;;4967974;28;20037;-75
2022/04/15 09:10:12;;;;;;;9.40;2.55;;;;;;;;;;4973339;28;20027;-76
2022/04/15 09:12:40;;;;;;;7.63;2.50;;;;;;;;;;4974326;28;20035;-76
2022/04/15 09:15:07;;;;;;;10.32;2.50;;;;;;;;;;4970991;28;20088;-76
2022/04/15 09:17:37;;;;;;;8.07;2.35;;;;;;;;;;4969492;28;20070;-75
2022/04/15 09:20:05;;;;;;;15.73;2.95;;;;;;;;;;4965945;28;20385;-75
2022/04/15 09:22:31;;;;;;;8.27;2.35;;;;;;;;;;4970597;28;20550;-75
2022/04/15 09:24:58;;;;;;;5.20;2.00;;;;;;;;;;4971556;28;21483;-75
2022/04/15 09:27:25;;;;;;;9.63;2.35;;;;;;;;;;4972305;28;20027;-75
2022/04/15 09:29:54;;;;;;;6.88;2.25;;;;;;;;;;4970281;28;20055;-75
2022/04/15 09:32:22;;;;;;;7.20;1.98;;;;;;;;;;4969407;28;20057;-75
2022/04/15 09:34:54;;;;;;;6.50;2.10;;;;;;;;;;4969598;28;20030;-75
2022/04/15 09:37:21;;;;;;;9.93;2.30;;;;;;;;;;4969568;28;20420;-75
2022/04/15 09:40:06;;;;;;;7.53;2.30;;;;;;;;;;4972441;28;20392;-75
2022/04/15 09:42:34;;;;;;;7.40;2.28;;;;;;;;;;4973588;28;20025;-75
2022/04/15 09:45:16;;;;;;;6.10;2.00;;;;;;;;;;4969925;28;20100;-75
2022/04/15 09:47:44;;;;;;;7.63;2.20;;;;;;;;;;4973271;28;20030;-76
2022/04/15 09:50:28;;;;;;;6.43;2.08;;;;;;;;;;4969582;28;20026;-75
2022/04/15 09:52:56;;;;;;;14.45;2.28;;;;;;;;;;4972669;28;20030;-75
2022/04/15 09:55:26;;;;;;;8.07;2.50;;;;;;;;;;4969363;28;20078;-75
2022/04/15 09:57:52;;;;;;;11.75;2.17;;;;;;;;;;4971426;28;20523;-74
2022/04/15 10:00:20;;;;;;;9.40;2.10;;;;;;;;;;4971148;28;20093;-76
2022/04/15 10:02:49;;;;;;;8.90;2.50;;;;;;;;;;4969638;28;20041;-76
2022/04/15 10:05:15;;;;;;;12.68;2.47;;;;;;;;;;4972018;28;20061;-76
2022/04/15 10:07:42;;;;;;;12.65;2.30;;;;;;;;;;4968457;28;20042;-76
2022/04/15 10:10:10;;;;;;;11.20;2.72;;;;;;;;;;4969662;28;20027;-76
2022/04/15 10:12:39;;;;;;;14.98;2.38;;;;;;;;;;4958366;28;20019;-76
2022/04/15 10:15:12;;;;;;;12.75;2.20;;;;;;;;;;4969685;28;20034;-76
2022/04/15 10:17:39;;;;;;;7.53;2.28;;;;;;;;;;4969441;28;20515;-76
2022/04/15 10:20:06;;;;;;;11.90;2.53;;;;;;;;;;4968761;28;20034;-77
2022/04/15 10:22:35;;;;;;;13.65;2.30;;;;;;;;;;4968958;28;20027;-77
2022/04/15 10:25:01;;;;;;;10.98;2.40;;;;;;;;;;4970293;28;20019;-77
2022/04/15 10:27:30;;;;;;;11.77;2.40;;;;;;;;;;4972362;28;20043;-76
2022/04/15 10:30:04;;;;;;;13.82;2.50;;;;;;;;;;4968971;28;20043;-76
2022/04/15 10:32:47;;;;;;;5.65;2.15;;;;;;;;;;4971880;28;20039;-76
2022/04/15 10:35:20;;;;;;;8.88;2.33;;;;;;;;;;4968400;28;20060;-76
2022/04/15 10:37:47;;;;;;;12.05;2.15;;;;;;;;;;4968619;28;20027;-76
2022/04/15 10:40:24;;;;;;;8.18;2.35;;;;;;;;;;4968072;28;20027;-77
2022/04/15 10:42:50;;;;;;;9.13;2.05;;;;;;;;;;4971041;28;20030;-76
2022/04/15 10:45:27;;;;;;;12.02;2.45;;;;;;;;;;4970747;28;20034;-77
2022/04/15 10:48:00;;;;;;;7.68;2.22;;;;;;;;;;4972046;28;20084;-76
2022/04/15 10:50:27;;;;;;;11.05;2.35;;;;;;;;;;4968527;28;20030;-77
2022/04/15 10:53:14;;;;;;;8.75;2.50;;;;;;;;;;4968526;28;20521;-76
2022/04/15 10:55:47;;;;;;;7.50;2.35;;;;;;;;;;4968559;28;20019;-76
2022/04/15 10:58:14;;;;;;;14.02;2.17;;;;;;;;;;4970949;28;20034;-76
2022/04/15 11:03:28;;;;;;;10.55;2.30;;;;;;;;;;4970794;28;20194;-76
2022/04/15 11:05:58;;;;;;;12.00;2.33;;;;;;;;;;4969096;28;20043;-76
2022/04/15 11:08:25;;;;;;;9.20;2.42;;;;;;;;;;4968571;28;20027;-76
2022/04/15 11:10:55;;;;;;;11.38;2.08;;;;;;;;;;4968531;28;20026;-76
2022/04/15 11:13:24;;;;;;;7.28;2.00;;;;;;;;;;4967590;28;20034;-77
2022/04/15 11:15:57;;;;;;;15.17;2.23;;;;;;;;;;4966901;28;20061;-76
2022/04/15 11:18:24;;;;;;;10.98;2.30;;;;;;;;;;4970350;28;20262;-76
2022/04/15 11:20:50;;;;;;;8.73;2.33;;;;;;;;;;4968572;28;20023;-76
2022/04/15 11:23:17;;;;;;;8.57;2.45;;;;;;;;;;4967631;28;20038;-76
2022/04/15 11:25:44;;;;;;;9.02;2.58;;;;;;;;;;4951828;28;20023;-77
2022/04/15 11:28:10;;;;;;;13.98;2.20;;;;;;;;;;4967551;28;20047;-76
2022/04/15 11:30:37;;;;;;;10.10;2.15;;;;;;;;;;4956029;28;20023;-76
2022/04/15 11:33:04;;;;;;;9.50;2.80;;;;;;;;;;4968026;28;20041;-76
2022/04/15 11:35:41;;;;;;;10.88;2.20;;;;;;;;;;4967020;28;20530;-77
2022/04/15 11:38:12;;;;;;;12.23;2.03;;;;;;;;;;4966746;28;20399;-76
2022/04/15 11:40:43;;;;;;;15.52;2.47;;;;;;;;;;4970139;28;20037;-77
2022/04/15 11:43:10;;;;;;;6.85;1.98;;;;;;;;;;4966357;28;20023;-76
2022/04/15 11:45:37;;;;;;;11.82;2.53;;;;;;;;;;4970409;28;20021;-76
2022/04/15 11:48:17;;;;;;;9.30;2.33;;;;;;;;;;4967018;28;20035;-76
2022/04/15 11:50:43;;;;;;;8.90;2.58;;;;;;;;;;4971079;28;20030;-76
2022/04/15 11:53:10;;;;;;;16.45;2.50;;;;;;;;;;4966856;28;20038;-77
2022/04/15 11:55:52;;;;;;;13.32;2.40;;;;;;;;;;4966635;28;20042;-76
2022/04/15 11:58:20;;;;;;;9.07;2.22;;;;;;;;;;4963978;28;20515;-76
2022/04/15 12:00:53;;;;;;;13.20;2.53;;;;;;;;;;4970180;28;20022;-76
2022/04/15 12:03:19;;;;;;;14.02;2.67;;;;;;;;;;4968821;28;20015;-76
2022/04/15 12:05:46;;;;;;;12.85;2.60;;;;;;;;;;4969135;28;20026;-76
2022/04/15 12:08:12;;;;;;;7.65;2.42;;;;;;;;;;4965433;28;20049;-76
2022/04/15 12:10:42;;;;;;;14.80;2.28;;;;;;;;;;4967655;28;20041;-76
2022/04/15 12:13:09;;;;;;;10.80;2.20;;;;;;;;;;4952749;28;20035;-76
2022/04/15 12:15:35;;;;;;;11.40;2.50;;;;;;;;;;4970843;28;20027;-76
2022/04/15 12:18:03;;;;;;;13.95;2.60;;;;;;;;;;4967177;28;20035;-77
2022/04/15 12:20:29;;;;;;;11.77;2.58;;;;;;;;;;4952717;28;20038;-76
2022/04/15 12:22:59;;;;;;;10.63;2.38;;;;;;;;;;4966253;28;20041;-76
2022/04/15 12:25:26;;;;;;;12.85;2.88;;;;;;;;;;4961951;28;21028;-76
2022/04/15 12:27:55;;;;;;;13.60;2.70;;;;;;;;;;4974658;28;20034;-76
2022/04/15 12:30:39;;;;;;;9.80;2.67;;;;;;;;;;4974861;28;20324;-76
2022/04/15 12:33:06;;;;;;;11.57;2.33;;;;;;;;;;4974871;28;20041;-76
2022/04/15 12:35:33;;;;;;;7.80;2.42;;;;;;;;;;4972373;28;20045;-76
2022/04/15 12:38:00;;;;;;;8.63;2.17;;;;;;;;;;4972469;28;20418;-76
2022/04/15 12:40:30;;;;;;;21.95;2.78;;;;;;;;;;4971573;28;20377;-76
2022/04/15 12:42:57;;;;;;;10.13;2.67;;;;;;;;;;4974672;28;20033;-76
2022/04/15 12:45:24;;;;;;;17.60;2.72;;;;;;;;;;4974270;28;20034;-76
2022/04/15 12:48:02;;;;;;;10.93;2.67;;;;;;;;;;4972812;28;20034;-76
2022/04/15 12:50:31;;;;;;;10.20;2.45;;;;;;;;;;4972631;28;20561;-76
2022/04/15 12:52:57;;;;;;;9.80;2.40;;;;;;;;;;4972441;28;20021;-76
2022/04/15 12:55:25;;;;;;;10.07;2.40;;;;;;;;;;4972578;28;20031;-75
2022/04/15 12:57:51;;;;;;;8.77;2.30;;;;;;;;;;4974067;28;20026;-76
2022/04/15 13:00:18;;;;;;;14.15;3.05;;;;;;;;;;4976150;28;20030;-76
2022/04/15 13:02:44;;;;;;;9.45;2.53;;;;;;;;;;4975771;28;20018;-76
2022/04/15 13:05:11;;;;;;;13.18;2.60;;;;;;;;;;4976670;28;20077;-75
2022/04/15 13:07:38;;;;;;;13.57;2.50;;;;;;;;;;4970688;28;20434;-75
2022/04/15 13:10:05;;;;;;;11.57;2.38;;;;;;;;;;4969044;28;20078;-76
2022/04/15 13:12:31;;;;;;;9.90;2.40;;;;;;;;;;4968032;28;20078;-76
2022/04/15 13:14:58;;;;;;;11.02;2.67;;;;;;;;;;4971900;28;20039;-75
2022/04/15 13:17:24;;;;;;;12.10;2.55;;;;;;;;;;4972307;28;20426;-76
2022/04/15 13:19:50;;;;;;;13.07;2.50;;;;;;;;;;4972053;28;20057;-76
2022/04/15 13:22:17;;;;;;;13.07;2.42;;;;;;;;;;4972656;28;20499;-75
2022/04/15 13:24:44;;;;;;;16.40;2.65;;;;;;;;;;4976476;28;20041;-76
2022/04/15 13:27:10;;;;;;;14.13;2.42;;;;;;;;;;4975926;28;20395;-74
2022/04/15 13:29:37;;;;;;;15.25;2.83;;;;;;;;;;4958944;28;20055;-76
2022/04/15 13:32:05;;;;;;;21.25;2.90;;;;;;;;;;4959127;28;20045;-76
2022/04/15 13:34:33;;;;;;;13.25;2.55;;;;;;;;;;4951820;28;20049;-76
2022/04/15 13:37:03;;;;;;;13.43;2.83;;;;;;;;;;4943400;28;20034;-76
2022/04/15 13:39:30;;;;;;;13.05;2.13;;;;;;;;;;4950293;29;20433;-76
2022/04/15 13:41:58;;;;;;;16.67;3.00;;;;;;;;;;4950415;29;20027;-76
2022/04/15 13:44:25;;;;;;;11.35;2.85;;;;;;;;;;4953928;29;20043;-76
2022/04/15 13:46:51;;;;;;;14.32;2.35;;;;;;;;;;4949401;28;20412;-76
2022/04/15 13:49:18;;;;;;;15.45;2.90;;;;;;;;;;4948562;28;20023;-76
2022/04/15 13:51:44;;;;;;;13.00;2.83;;;;;;;;;;4952591;29;20428;-76
2022/04/15 13:56:56;;;;;;;10.00;2.67;;;;;;;;;;4949314;29;20027;-75
2022/04/15 13:59:22;;;;;;;14.88;2.83;;;;;;;;;;4945903;29;20038;-75
2022/04/15 14:01:49;;;;;;;15.00;2.72;;;;;;;;;;4948862;29;20366;-76
2022/04/15 14:04:16;;;;;;;14.43;2.70;;;;;;;;;;4946543;29;20408;-75
2022/04/15 14:06:46;;;;;;;19.52;3.00;;;;;;;;;;4940036;29;20045;-76
2022/04/15 14:09:13;;;;;;;15.05;2.63;;;;;;;;;;4965411;28;20031;-76
2022/04/15 14:11:41;;;;;;;12.48;2.45;;;;;;;;;;4954293;29;20509;-76
2022/04/15 14:14:08;;;;;;;13.85;2.65;;;;;;;;;;4948728;28;20038;-75
2022/04/15 14:16:34;;;;;;;11.77;2.50;;;;;;;;;;4953760;28;20389;-76
2022/04/15 14:19:02;;;;;;;14.02;2.53;;;;;;;;;;4951053;29;20489;-75
2022/04/15 14:21:29;;;;;;;14.55;2.30;;;;;;;;;;4952147;29;20034;-76
2022/04/15 14:23:55;;;;;;;9.77;2.15;;;;;;;;;;4948285;29;20042;-75
2022/04/15 14:26:23;;;;;;;12.30;2.80;;;;;;;;;;4946018;29;20041;-75
2022/04/15 14:28:49;;;;;;;14.63;2.47;;;;;;;;;;4955487;28;20400;-74
2022/04/15 14:31:16;;;;;;;13.23;2.40;;;;;;;;;;4967832;28;20043;-75
2022/04/15 14:33:42;;;;;;;16.00;2.53;;;;;;;;;;4972524;28;20027;-75
2022/04/15 14:36:09;;;;;;;15.40;2.72;;;;;;;;;;4968986;28;20558;-75
2022/04/15 14:38:38;;;;;;;14.27;2.63;;;;;;;;;;4973086;28;20521;-75
2022/04/15 14:41:05;;;;;;;18.60;2.70;;;;;;;;;;4969423;28;20025;-75
2022/04/15 14:43:32;;;;;;;12.68;2.15;;;;;;;;;;4969841;28;20034;-75